sensor_id;sensor_type;location;lat;lon;timestamp;temperature;humidity
10083;DHT22;5080;48.528;8.078;2023-05-16T00:00:36;15.20;99.90
10083;DHT22;5080;48.528;8.078;2023-05-16T00:03:03;15.20;99.90
10083;DHT22;5080;48.528;8.078;2023-05-16T00:05:31;15.10;99.90
10083;DHT22;5080;48.528;8.078;2023-05-16T00:07:57;15.00;99.90
10083;DHT22;5080;48.528;8.078;2023-05-16T00:10:25;15.10;99.90
10083;DHT22;5080;48.528;8.078;2023-05-16T00:12:52;15.20;99.90
10083;DHT22;5080;48.528;8.078;2023-05-16T00:15:20;15.20;99.90
10083;DHT22;5080;48.528;8.078;2023-05-16T00:17:47;15.20;99.90
10083;DHT22;5080;48.528;8.078;2023-05-16T00:20:14;15.00;99.90
10083;DHT22;5080;48.528;8.078;2023-05-16T00:22:41;15.00;99.90
10083;DHT22;5080;48.528;8.078;2023-05-16T00:25:08;15.00;99.90
10083;DHT22;5080;48.528;8.078;2023-05-16T00:27:36;15.00;99.90
10083;DHT22;5080;48.528;8.078;2023-05-16T00:30:04;15.00;99.90
10083;DHT22;5080;48.528;8.078;2023-05-16T00:32:32;15.10;99.90
10083;DHT22;5080;48.528;8.078;2023-05-16T00:34:58;15.10;99.90
10083;DHT22;5080;48.528;8.078;2023-05-16T00:37:25;15.00;99.90
10083;DHT22;5080;48.528;8.078;2023-05-16T00:39:52;15.00;99.90
10083;DHT22;5080;48.528;8.078;2023-05-16T00:42:19;15.00;99.90
10083;DHT22;5080;48.528;8.078;2023-05-16T00:44:48;15.00;99.90
10083;DHT22;5080;48.528;8.078;2023-05-16T00:47:14;15.00;99.90
10083;DHT22;5080;48.528;8.078;2023-05-16T00:49:41;15.00;99.90
10083;DHT22;5080;48.528;8.078;2023-05-16T00:52:08;15.00;99.90
10083;DHT22;5080;48.528;8.078;2023-05-16T00:54:36;15.00;99.90
10083;DHT22;5080;48.528;8.078;2023-05-16T00:57:04;15.00;99.90
10083;DHT22;5080;48.528;8.078;2023-05-16T00:59:31;15.10;99.90
10083;DHT22;5080;48.528;8.078;2023-05-16T01:02:00;15.00;99.90
10083;DHT22;5080;48.528;8.078;2023-05-16T01:04:28;15.00;99.90
10083;DHT22;5080;48.528;8.078;2023-05-16T01:06:56;15.00;99.90
10083;DHT22;5080;48.528;8.078;2023-05-16T01:09:23;15.00;99.90
10083;DHT22;5080;48.528;8.078;2023-05-16T01:11:53;15.00;99.90
10083;DHT22;5080;48.528;8.078;2023-05-16T01:14:28;15.00;99.90
10083;DHT22;5080;48.528;8.078;2023-05-16T01:17:03;15.00;99.90
10083;DHT22;5080;48.528;8.078;2023-05-16T01:19:46;14.90;99.90
10083;DHT22;5080;48.528;8.078;2023-05-16T01:22:28;14.80;99.90
10083;DHT22;5080;48.528;8.078;2023-05-16T01:25:04;14.60;99.90
10083;DHT22;5080;48.528;8.078;2023-05-16T01:27:33;14.60;99.90
10083;DHT22;5080;48.528;8.078;2023-05-16T01:30:12;14.50;99.90
10083;DHT22;5080;48.528;8.078;2023-05-16T01:32:39;14.50;99.90
10083;DHT22;5080;48.528;8.078;2023-05-16T01:35:08;14.50;99.90
10083;DHT22;5080;48.528;8.078;2023-05-16T01:37:41;14.40;99.90
10083;DHT22;5080;48.528;8.078;2023-05-16T01:40:15;14.50;99.90
10083;DHT22;5080;48.528;8.078;2023-05-16T01:42:46;14.50;99.90
10083;DHT22;5080;48.528;8.078;2023-05-16T01:45:19;14.50;99.90
10083;DHT22;5080;48.528;8.078;2023-05-16T01:47:53;14.50;99.90
10083;DHT22;5080;48.528;8.078;2023-05-16T01:50:22;14.40;99.90
10083;DHT22;5080;48.528;8.078;2023-05-16T01:52:52;14.30;99.90
10083;DHT22;5080;48.528;8.078;2023-05-16T01:55:27;14.30;99.90
10083;DHT22;5080;48.528;8.078;2023-05-16T01:57:58;14.40;99.90
10083;DHT22;5080;48.528;8.078;2023-05-16T02:00:25;14.40;99.90
10083;DHT22;5080;48.528;8.078;2023-05-16T02:02:52;14.30;99.90
10083;DHT22;5080;48.528;8.078;2023-05-16T02:05:18;14.30;99.90
10083;DHT22;5080;48.528;8.078;2023-05-16T02:07:45;14.30;99.90
10083;DHT22;5080;48.528;8.078;2023-05-16T02:10:12;14.30;99.90
10083;DHT22;5080;48.528;8.078;2023-05-16T02:12:39;14.40;99.90
10083;DHT22;5080;48.528;8.078;2023-05-16T02:15:08;14.40;99.90
10083;DHT22;5080;48.528;8.078;2023-05-16T02:17:35;14.40;99.90
10083;DHT22;5080;48.528;8.078;2023-05-16T02:20:02;14.40;99.90
10083;DHT22;5080;48.528;8.078;2023-05-16T02:22:31;14.40;99.90
10083;DHT22;5080;48.528;8.078;2023-05-16T02:25:00;14.40;99.90
10083;DHT22;5080;48.528;8.078;2023-05-16T02:27:27;14.30;99.90
10083;DHT22;5080;48.528;8.078;2023-05-16T02:29:54;14.30;99.90
10083;DHT22;5080;48.528;8.078;2023-05-16T02:32:23;14.30;99.90
10083;DHT22;5080;48.528;8.078;2023-05-16T02:34:50;14.20;99.90
10083;DHT22;5080;48.528;8.078;2023-05-16T02:37:17;14.20;99.90
10083;DHT22;5080;48.528;8.078;2023-05-16T02:39:44;14.20;99.90
10083;DHT22;5080;48.528;8.078;2023-05-16T02:42:12;14.10;99.90
10083;DHT22;5080;48.528;8.078;2023-05-16T02:44:38;14.10;99.90
10083;DHT22;5080;48.528;8.078;2023-05-16T02:47:05;14.10;99.90
10083;DHT22;5080;48.528;8.078;2023-05-16T02:49:33;14.10;99.90
10083;DHT22;5080;48.528;8.078;2023-05-16T02:52:00;14.20;99.90
10083;DHT22;5080;48.528;8.078;2023-05-16T02:54:27;14.10;99.90
10083;DHT22;5080;48.528;8.078;2023-05-16T02:56:54;14.10;99.90
10083;DHT22;5080;48.528;8.078;2023-05-16T02:59:21;14.10;99.90
10083;DHT22;5080;48.528;8.078;2023-05-16T03:01:47;14.00;99.90
10083;DHT22;5080;48.528;8.078;2023-05-16T03:04:14;14.00;99.90
10083;DHT22;5080;48.528;8.078;2023-05-16T03:06:42;14.00;99.90
10083;DHT22;5080;48.528;8.078;2023-05-16T03:09:09;14.00;99.90
10083;DHT22;5080;48.528;8.078;2023-05-16T03:11:36;13.90;99.90
10083;DHT22;5080;48.528;8.078;2023-05-16T03:14:03;14.00;99.90
10083;DHT22;5080;48.528;8.078;2023-05-16T03:16:30;13.90;99.90
10083;DHT22;5080;48.528;8.078;2023-05-16T03:18:57;13.90;99.90
10083;DHT22;5080;48.528;8.078;2023-05-16T03:21:24;13.90;99.90
10083;DHT22;5080;48.528;8.078;2023-05-16T03:23:52;13.90;99.90
10083;DHT22;5080;48.528;8.078;2023-05-16T03:26:19;13.90;99.90
10083;DHT22;5080;48.528;8.078;2023-05-16T03:28:47;13.90;99.90
10083;DHT22;5080;48.528;8.078;2023-05-16T03:31:14;13.90;99.90
10083;DHT22;5080;48.528;8.078;2023-05-16T03:33:40;13.90;99.90
10083;DHT22;5080;48.528;8.078;2023-05-16T03:36:08;13.90;99.90
10083;DHT22;5080;48.528;8.078;2023-05-16T03:38:35;13.90;99.90
10083;DHT22;5080;48.528;8.078;2023-05-16T03:41:03;13.90;99.90
10083;DHT22;5080;48.528;8.078;2023-05-16T03:43:30;13.90;99.90
10083;DHT22;5080;48.528;8.078;2023-05-16T03:45:57;13.90;99.90
10083;DHT22;5080;48.528;8.078;2023-05-16T03:48:26;13.90;99.90
10083;DHT22;5080;48.528;8.078;2023-05-16T03:50:53;13.80;99.90
10083;DHT22;5080;48.528;8.078;2023-05-16T03:53:20;13.80;99.90
10083;DHT22;5080;48.528;8.078;2023-05-16T03:55:47;13.80;99.90
10083;DHT22;5080;48.528;8.078;2023-05-16T03:58:15;13.80;99.90
10083;DHT22;5080;48.528;8.078;2023-05-16T04:00:41;13.80;99.90
10083;DHT22;5080;48.528;8.078;2023-05-16T04:03:10;13.80;99.90
10083;DHT22;5080;48.528;8.078;2023-05-16T04:05:37;13.80;99.90
10083;DHT22;5080;48.528;8.078;2023-05-16T04:08:04;13.70;99.90
10083;DHT22;5080;48.528;8.078;2023-05-16T04:10:31;13.70;99.90
10083;DHT22;5080;48.528;8.078;2023-05-16T04:12:58;13.70;99.90
10083;DHT22;5080;48.528;8.078;2023-05-16T04:15:26;13.80;99.90
10083;DHT22;5080;48.528;8.078;2023-05-16T04:17:53;13.70;99.90
10083;DHT22;5080;48.528;8.078;2023-05-16T04:20:19;13.80;99.90
10083;DHT22;5080;48.528;8.078;2023-05-16T04:22:46;13.70;99.90
10083;DHT22;5080;48.528;8.078;2023-05-16T04:25:13;13.80;99.90
10083;DHT22;5080;48.528;8.078;2023-05-16T04:27:40;13.80;99.90
10083;DHT22;5080;48.528;8.078;2023-05-16T04:30:08;13.80;99.90
10083;DHT22;5080;48.528;8.078;2023-05-16T04:32:37;13.80;99.90
10083;DHT22;5080;48.528;8.078;2023-05-16T04:35:04;13.70;99.90
10083;DHT22;5080;48.528;8.078;2023-05-16T04:37:33;13.70;99.90
10083;DHT22;5080;48.528;8.078;2023-05-16T04:40:01;13.70;99.90
10083;DHT22;5080;48.528;8.078;2023-05-16T04:42:28;13.60;99.90
10083;DHT22;5080;48.528;8.078;2023-05-16T04:44:55;13.70;99.90
10083;DHT22;5080;48.528;8.078;2023-05-16T04:47:22;13.60;99.90
10083;DHT22;5080;48.528;8.078;2023-05-16T04:49:50;13.60;99.90
10083;DHT22;5080;48.528;8.078;2023-05-16T04:52:18;13.50;99.90
10083;DHT22;5080;48.528;8.078;2023-05-16T04:54:44;13.50;99.90
10083;DHT22;5080;48.528;8.078;2023-05-16T04:57:11;13.40;99.90
10083;DHT22;5080;48.528;8.078;2023-05-16T04:59:38;13.40;99.90
10083;DHT22;5080;48.528;8.078;2023-05-16T05:02:05;13.30;99.90
10083;DHT22;5080;48.528;8.078;2023-05-16T05:04:32;13.40;99.90
10083;DHT22;5080;48.528;8.078;2023-05-16T05:07:00;13.30;99.90
10083;DHT22;5080;48.528;8.078;2023-05-16T05:09:27;13.30;99.90
10083;DHT22;5080;48.528;8.078;2023-05-16T05:11:54;13.30;99.90
10083;DHT22;5080;48.528;8.078;2023-05-16T05:14:20;13.30;99.90
10083;DHT22;5080;48.528;8.078;2023-05-16T05:16:47;13.20;99.90
10083;DHT22;5080;48.528;8.078;2023-05-16T05:19:14;13.30;99.90
10083;DHT22;5080;48.528;8.078;2023-05-16T05:21:41;13.20;99.90
10083;DHT22;5080;48.528;8.078;2023-05-16T05:24:09;13.20;99.90
10083;DHT22;5080;48.528;8.078;2023-05-16T05:26:36;13.20;99.90
10083;DHT22;5080;48.528;8.078;2023-05-16T05:29:03;13.20;99.90
10083;DHT22;5080;48.528;8.078;2023-05-16T05:31:30;13.10;99.90
10083;DHT22;5080;48.528;8.078;2023-05-16T05:33:58;13.10;99.90
10083;DHT22;5080;48.528;8.078;2023-05-16T05:36:25;13.10;99.90
10083;DHT22;5080;48.528;8.078;2023-05-16T05:38:52;13.00;99.90
10083;DHT22;5080;48.528;8.078;2023-05-16T05:41:20;13.10;99.90
10083;DHT22;5080;48.528;8.078;2023-05-16T05:43:47;13.10;99.90
10083;DHT22;5080;48.528;8.078;2023-05-16T05:46:14;13.20;99.90
10083;DHT22;5080;48.528;8.078;2023-05-16T05:48:41;13.20;99.90
10083;DHT22;5080;48.528;8.078;2023-05-16T05:51:08;13.20;99.90
10083;DHT22;5080;48.528;8.078;2023-05-16T05:53:35;13.20;99.90
10083;DHT22;5080;48.528;8.078;2023-05-16T05:56:02;13.20;99.90
10083;DHT22;5080;48.528;8.078;2023-05-16T05:58:30;13.20;99.90
10083;DHT22;5080;48.528;8.078;2023-05-16T06:00:57;13.20;99.90
10083;DHT22;5080;48.528;8.078;2023-05-16T06:03:24;13.20;99.90
10083;DHT22;5080;48.528;8.078;2023-05-16T06:05:51;13.20;99.90
10083;DHT22;5080;48.528;8.078;2023-05-16T06:08:17;13.30;99.90
10083;DHT22;5080;48.528;8.078;2023-05-16T06:10:44;13.20;99.90
10083;DHT22;5080;48.528;8.078;2023-05-16T06:13:11;13.20;99.90
10083;DHT22;5080;48.528;8.078;2023-05-16T06:15:39;13.30;99.90
10083;DHT22;5080;48.528;8.078;2023-05-16T06:18:06;13.30;99.90
10083;DHT22;5080;48.528;8.078;2023-05-16T06:20:33;13.20;99.90
10083;DHT22;5080;48.528;8.078;2023-05-16T06:23:00;13.20;99.90
10083;DHT22;5080;48.528;8.078;2023-05-16T06:25:27;13.10;99.90
10083;DHT22;5080;48.528;8.078;2023-05-16T06:27:54;13.10;99.90
10083;DHT22;5080;48.528;8.078;2023-05-16T06:30:21;13.20;99.90
10083;DHT22;5080;48.528;8.078;2023-05-16T06:32:50;13.20;99.90
10083;DHT22;5080;48.528;8.078;2023-05-16T06:35:16;13.30;99.90
10083;DHT22;5080;48.528;8.078;2023-05-16T06:37:43;13.30;99.90
10083;DHT22;5080;48.528;8.078;2023-05-16T06:40:11;13.40;99.90
10083;DHT22;5080;48.528;8.078;2023-05-16T06:42:38;13.40;99.90
10083;DHT22;5080;48.528;8.078;2023-05-16T06:45:06;13.40;99.90
10083;DHT22;5080;48.528;8.078;2023-05-16T06:47:33;13.40;99.90
10083;DHT22;5080;48.528;8.078;2023-05-16T06:50:01;13.40;99.90
10083;DHT22;5080;48.528;8.078;2023-05-16T06:52:28;13.40;99.90
10083;DHT22;5080;48.528;8.078;2023-05-16T06:54:55;13.40;99.90
10083;DHT22;5080;48.528;8.078;2023-05-16T06:57:21;13.40;99.90
10083;DHT22;5080;48.528;8.078;2023-05-16T06:59:48;13.30;99.90
10083;DHT22;5080;48.528;8.078;2023-05-16T07:02:15;13.30;99.90
10083;DHT22;5080;48.528;8.078;2023-05-16T07:04:42;13.30;99.90
10083;DHT22;5080;48.528;8.078;2023-05-16T07:07:10;13.30;99.90
10083;DHT22;5080;48.528;8.078;2023-05-16T07:09:38;13.30;99.90
10083;DHT22;5080;48.528;8.078;2023-05-16T07:12:05;13.30;99.90
10083;DHT22;5080;48.528;8.078;2023-05-16T07:14:32;13.30;99.90
10083;DHT22;5080;48.528;8.078;2023-05-16T07:16:58;13.20;99.90
10083;DHT22;5080;48.528;8.078;2023-05-16T07:19:25;13.10;99.90
10083;DHT22;5080;48.528;8.078;2023-05-16T07:21:52;13.20;99.90
10083;DHT22;5080;48.528;8.078;2023-05-16T07:24:20;13.20;99.90
10083;DHT22;5080;48.528;8.078;2023-05-16T07:26:47;13.20;99.90
10083;DHT22;5080;48.528;8.078;2023-05-16T07:29:14;13.10;99.90
10083;DHT22;5080;48.528;8.078;2023-05-16T07:31:41;13.10;99.90
10083;DHT22;5080;48.528;8.078;2023-05-16T07:34:08;13.10;99.90
10083;DHT22;5080;48.528;8.078;2023-05-16T07:36:35;13.10;99.90
10083;DHT22;5080;48.528;8.078;2023-05-16T07:39:02;13.10;99.90
10083;DHT22;5080;48.528;8.078;2023-05-16T07:41:30;13.10;99.90
10083;DHT22;5080;48.528;8.078;2023-05-16T07:43:57;13.10;99.90
10083;DHT22;5080;48.528;8.078;2023-05-16T07:46:24;13.10;99.90
10083;DHT22;5080;48.528;8.078;2023-05-16T07:48:51;13.10;99.90
10083;DHT22;5080;48.528;8.078;2023-05-16T07:51:18;13.10;99.90
10083;DHT22;5080;48.528;8.078;2023-05-16T07:53:44;13.10;99.90
10083;DHT22;5080;48.528;8.078;2023-05-16T07:56:11;13.10;99.90
10083;DHT22;5080;48.528;8.078;2023-05-16T07:58:40;13.10;99.90
10083;DHT22;5080;48.528;8.078;2023-05-16T08:01:07;13.10;99.90
10083;DHT22;5080;48.528;8.078;2023-05-16T08:03:34;13.20;99.90
10083;DHT22;5080;48.528;8.078;2023-05-16T08:06:01;13.20;99.90
10083;DHT22;5080;48.528;8.078;2023-05-16T08:08:28;13.20;99.90
10083;DHT22;5080;48.528;8.078;2023-05-16T08:10:55;13.20;99.90
10083;DHT22;5080;48.528;8.078;2023-05-16T08:13:22;13.20;99.90
10083;DHT22;5080;48.528;8.078;2023-05-16T08:15:50;13.40;99.90
10083;DHT22;5080;48.528;8.078;2023-05-16T08:18:17;13.20;99.90
10083;DHT22;5080;48.528;8.078;2023-05-16T08:20:44;13.30;99.90
10083;DHT22;5080;48.528;8.078;2023-05-16T08:23:11;13.20;99.90
10083;DHT22;5080;48.528;8.078;2023-05-16T08:25:38;13.20;99.90
10083;DHT22;5080;48.528;8.078;2023-05-16T08:28:05;13.20;99.90
10083;DHT22;5080;48.528;8.078;2023-05-16T08:30:32;13.10;99.90
10083;DHT22;5080;48.528;8.078;2023-05-16T08:33:00;13.10;99.90
10083;DHT22;5080;48.528;8.078;2023-05-16T08:35:29;13.10;99.90
10083;DHT22;5080;48.528;8.078;2023-05-16T08:37:56;13.10;99.90
10083;DHT22;5080;48.528;8.078;2023-05-16T08:40:25;13.10;99.90
10083;DHT22;5080;48.528;8.078;2023-05-16T08:42:52;13.20;99.90
10083;DHT22;5080;48.528;8.078;2023-05-16T08:45:19;13.40;99.90
10083;DHT22;5080;48.528;8.078;2023-05-16T08:47:49;13.50;99.90
10083;DHT22;5080;48.528;8.078;2023-05-16T08:50:17;13.60;99.90
10083;DHT22;5080;48.528;8.078;2023-05-16T08:52:46;13.60;99.90
10083;DHT22;5080;48.528;8.078;2023-05-16T08:55:19;13.40;99.90
10083;DHT22;5080;48.528;8.078;2023-05-16T08:57:47;13.50;99.90
10083;DHT22;5080;48.528;8.078;2023-05-16T09:00:16;13.60;99.90
10083;DHT22;5080;48.528;8.078;2023-05-16T09:02:44;13.70;99.90
10083;DHT22;5080;48.528;8.078;2023-05-16T09:05:12;13.70;99.90
10083;DHT22;5080;48.528;8.078;2023-05-16T09:07:41;13.70;99.90
10083;DHT22;5080;48.528;8.078;2023-05-16T09:10:09;13.60;99.90
10083;DHT22;5080;48.528;8.078;2023-05-16T09:12:36;13.70;99.90
10083;DHT22;5080;48.528;8.078;2023-05-16T09:15:04;13.80;99.90
10083;DHT22;5080;48.528;8.078;2023-05-16T09:17:34;13.80;99.90
10083;DHT22;5080;48.528;8.078;2023-05-16T09:20:08;13.80;99.90
10083;DHT22;5080;48.528;8.078;2023-05-16T09:22:35;13.90;99.90
10083;DHT22;5080;48.528;8.078;2023-05-16T09:25:03;13.80;99.90
10083;DHT22;5080;48.528;8.078;2023-05-16T09:27:31;13.80;99.90
10083;DHT22;5080;48.528;8.078;2023-05-16T09:29:58;13.80;99.90
10083;DHT22;5080;48.528;8.078;2023-05-16T09:32:25;13.80;99.90
10083;DHT22;5080;48.528;8.078;2023-05-16T09:34:53;13.80;99.90
10083;DHT22;5080;48.528;8.078;2023-05-16T09:37:23;13.80;99.90
10083;DHT22;5080;48.528;8.078;2023-05-16T09:39:51;13.80;99.90
10083;DHT22;5080;48.528;8.078;2023-05-16T09:42:20;13.80;99.90
10083;DHT22;5080;48.528;8.078;2023-05-16T09:44:49;13.80;99.90
10083;DHT22;5080;48.528;8.078;2023-05-16T09:47:17;13.70;99.90
10083;DHT22;5080;48.528;8.078;2023-05-16T09:49:44;13.60;99.90
10083;DHT22;5080;48.528;8.078;2023-05-16T09:52:11;13.70;99.90
10083;DHT22;5080;48.528;8.078;2023-05-16T09:54:39;13.70;99.90
10083;DHT22;5080;48.528;8.078;2023-05-16T09:57:06;13.80;99.90
10083;DHT22;5080;48.528;8.078;2023-05-16T09:59:36;13.80;99.90
10083;DHT22;5080;48.528;8.078;2023-05-16T10:02:05;13.70;99.90
10083;DHT22;5080;48.528;8.078;2023-05-16T10:04:33;13.60;99.90
10083;DHT22;5080;48.528;8.078;2023-05-16T10:07:02;13.60;99.90
10083;DHT22;5080;48.528;8.078;2023-05-16T10:09:31;13.60;99.90
10083;DHT22;5080;48.528;8.078;2023-05-16T10:12:00;13.60;99.90
10083;DHT22;5080;48.528;8.078;2023-05-16T10:14:29;13.60;99.90
10083;DHT22;5080;48.528;8.078;2023-05-16T10:17:02;13.60;99.90
10083;DHT22;5080;48.528;8.078;2023-05-16T10:19:31;13.70;99.90
10083;DHT22;5080;48.528;8.078;2023-05-16T10:21:59;13.50;99.90
10083;DHT22;5080;48.528;8.078;2023-05-16T10:24:36;13.60;99.90
10083;DHT22;5080;48.528;8.078;2023-05-16T10:27:04;13.60;99.90
10083;DHT22;5080;48.528;8.078;2023-05-16T10:29:31;13.70;99.90
10083;DHT22;5080;48.528;8.078;2023-05-16T10:32:00;13.70;99.90
10083;DHT22;5080;48.528;8.078;2023-05-16T10:34:29;13.60;99.90
10083;DHT22;5080;48.528;8.078;2023-05-16T10:36:56;13.60;99.90
10083;DHT22;5080;48.528;8.078;2023-05-16T10:39:23;13.60;99.90
10083;DHT22;5080;48.528;8.078;2023-05-16T10:41:50;13.70;99.90
10083;DHT22;5080;48.528;8.078;2023-05-16T10:44:17;13.70;99.90
10083;DHT22;5080;48.528;8.078;2023-05-16T10:46:46;13.60;99.90
10083;DHT22;5080;48.528;8.078;2023-05-16T10:49:20;13.60;99.90
10083;DHT22;5080;48.528;8.078;2023-05-16T10:52:04;13.50;99.90
10083;DHT22;5080;48.528;8.078;2023-05-16T10:54:36;13.40;99.90
10083;DHT22;5080;48.528;8.078;2023-05-16T10:57:09;13.30;99.90
10083;DHT22;5080;48.528;8.078;2023-05-16T10:59:44;13.30;99.90
10083;DHT22;5080;48.528;8.078;2023-05-16T11:02:29;13.30;99.90
10083;DHT22;5080;48.528;8.078;2023-05-16T11:04:59;13.40;99.90
10083;DHT22;5080;48.528;8.078;2023-05-16T11:07:30;13.40;99.90
10083;DHT22;5080;48.528;8.078;2023-05-16T11:10:05;13.50;99.90
10083;DHT22;5080;48.528;8.078;2023-05-16T11:12:37;13.40;99.90
10083;DHT22;5080;48.528;8.078;2023-05-16T11:15:17;13.30;99.90
10083;DHT22;5080;48.528;8.078;2023-05-16T11:17:45;13.30;99.90
10083;DHT22;5080;48.528;8.078;2023-05-16T11:20:26;13.30;99.90
10083;DHT22;5080;48.528;8.078;2023-05-16T11:25:52;13.30;99.90
10083;DHT22;5080;48.528;8.078;2023-05-16T11:28:20;13.40;99.90
10083;DHT22;5080;48.528;8.078;2023-05-16T11:30:48;13.30;99.90
10083;DHT22;5080;48.528;8.078;2023-05-16T11:33:16;13.40;99.90
10083;DHT22;5080;48.528;8.078;2023-05-16T11:35:59;13.50;99.90
10083;DHT22;5080;48.528;8.078;2023-05-16T11:38:28;13.50;99.90
10083;DHT22;5080;48.528;8.078;2023-05-16T11:41:01;13.60;99.90
10083;DHT22;5080;48.528;8.078;2023-05-16T11:43:28;13.60;99.90
10083;DHT22;5080;48.528;8.078;2023-05-16T11:45:55;13.60;99.90
10083;DHT22;5080;48.528;8.078;2023-05-16T11:48:23;13.50;99.90
10083;DHT22;5080;48.528;8.078;2023-05-16T11:50:51;13.50;99.90
10083;DHT22;5080;48.528;8.078;2023-05-16T11:53:19;13.50;99.90
10083;DHT22;5080;48.528;8.078;2023-05-16T11:55:47;13.40;99.90
10083;DHT22;5080;48.528;8.078;2023-05-16T11:58:17;13.40;99.90
10083;DHT22;5080;48.528;8.078;2023-05-16T12:00:47;13.40;99.90
10083;DHT22;5080;48.528;8.078;2023-05-16T12:03:14;13.40;99.90
10083;DHT22;5080;48.528;8.078;2023-05-16T12:05:50;13.40;99.90
10083;DHT22;5080;48.528;8.078;2023-05-16T12:08:18;13.40;99.90
10083;DHT22;5080;48.528;8.078;2023-05-16T12:10:48;13.40;99.90
10083;DHT22;5080;48.528;8.078;2023-05-16T12:13:16;13.40;99.90
10083;DHT22;5080;48.528;8.078;2023-05-16T12:15:43;13.30;99.90
10083;DHT22;5080;48.528;8.078;2023-05-16T12:18:10;13.30;99.90
10083;DHT22;5080;48.528;8.078;2023-05-16T12:20:37;13.20;99.90
10083;DHT22;5080;48.528;8.078;2023-05-16T12:23:09;13.20;99.90
10083;DHT22;5080;48.528;8.078;2023-05-16T12:25:36;13.10;99.90
10083;DHT22;5080;48.528;8.078;2023-05-16T12:28:06;13.20;99.90
10083;DHT22;5080;48.528;8.078;2023-05-16T12:30:33;13.10;99.90
10083;DHT22;5080;48.528;8.078;2023-05-16T12:33:01;13.00;99.90
10083;DHT22;5080;48.528;8.078;2023-05-16T12:35:29;13.10;99.90
10083;DHT22;5080;48.528;8.078;2023-05-16T12:37:57;13.20;99.90
10083;DHT22;5080;48.528;8.078;2023-05-16T12:40:27;13.10;99.90
10083;DHT22;5080;48.528;8.078;2023-05-16T12:42:54;13.20;99.90
10083;DHT22;5080;48.528;8.078;2023-05-16T12:45:21;13.20;99.90
10083;DHT22;5080;48.528;8.078;2023-05-16T12:47:49;13.30;99.90
10083;DHT22;5080;48.528;8.078;2023-05-16T12:50:16;13.30;99.90
10083;DHT22;5080;48.528;8.078;2023-05-16T12:52:46;13.30;99.90
10083;DHT22;5080;48.528;8.078;2023-05-16T12:55:15;13.20;99.90
10083;DHT22;5080;48.528;8.078;2023-05-16T12:57:43;13.10;99.90
10083;DHT22;5080;48.528;8.078;2023-05-16T13:00:13;13.20;99.90
10083;DHT22;5080;48.528;8.078;2023-05-16T13:02:41;13.20;99.90
10083;DHT22;5080;48.528;8.078;2023-05-16T13:05:08;13.10;99.90
10083;DHT22;5080;48.528;8.078;2023-05-16T13:07:35;13.20;99.90
10083;DHT22;5080;48.528;8.078;2023-05-16T13:10:04;13.30;99.90
10083;DHT22;5080;48.528;8.078;2023-05-16T13:12:33;13.40;99.90
10083;DHT22;5080;48.528;8.078;2023-05-16T13:15:01;13.50;99.90
10083;DHT22;5080;48.528;8.078;2023-05-16T13:17:28;13.50;99.90
10083;DHT22;5080;48.528;8.078;2023-05-16T13:19:56;13.60;99.90
10083;DHT22;5080;48.528;8.078;2023-05-16T13:22:23;13.50;99.90
10083;DHT22;5080;48.528;8.078;2023-05-16T13:24:50;13.60;99.90
10083;DHT22;5080;48.528;8.078;2023-05-16T13:27:16;13.60;99.90
10083;DHT22;5080;48.528;8.078;2023-05-16T13:29:43;13.50;99.90
10083;DHT22;5080;48.528;8.078;2023-05-16T13:32:12;13.50;99.90
10083;DHT22;5080;48.528;8.078;2023-05-16T13:34:38;13.50;99.90
10083;DHT22;5080;48.528;8.078;2023-05-16T13:37:05;13.50;99.90
10083;DHT22;5080;48.528;8.078;2023-05-16T13:39:32;13.40;99.90
10083;DHT22;5080;48.528;8.078;2023-05-16T13:41:59;13.40;99.90
10083;DHT22;5080;48.528;8.078;2023-05-16T13:44:27;13.30;99.90
10083;DHT22;5080;48.528;8.078;2023-05-16T13:46:55;13.30;99.90
10083;DHT22;5080;48.528;8.078;2023-05-16T13:49:23;13.30;99.90
10083;DHT22;5080;48.528;8.078;2023-05-16T13:51:51;13.30;99.90
10083;DHT22;5080;48.528;8.078;2023-05-16T13:54:17;13.30;99.90
10083;DHT22;5080;48.528;8.078;2023-05-16T13:56:44;13.30;99.90
10083;DHT22;5080;48.528;8.078;2023-05-16T13:59:11;13.30;99.90
10083;DHT22;5080;48.528;8.078;2023-05-16T14:01:38;13.20;99.90
10083;DHT22;5080;48.528;8.078;2023-05-16T14:04:06;13.20;99.90
10083;DHT22;5080;48.528;8.078;2023-05-16T14:06:34;13.10;99.90
10083;DHT22;5080;48.528;8.078;2023-05-16T14:09:01;13.10;99.90
10083;DHT22;5080;48.528;8.078;2023-05-16T14:11:29;13.20;99.90
10083;DHT22;5080;48.528;8.078;2023-05-16T14:13:56;13.10;99.90
10083;DHT22;5080;48.528;8.078;2023-05-16T14:16:23;13.00;99.90
10083;DHT22;5080;48.528;8.078;2023-05-16T14:18:50;12.90;99.90
10083;DHT22;5080;48.528;8.078;2023-05-16T14:21:17;12.90;99.90
10083;DHT22;5080;48.528;8.078;2023-05-16T14:23:45;12.90;99.90
10083;DHT22;5080;48.528;8.078;2023-05-16T14:26:13;13.10;99.90
10083;DHT22;5080;48.528;8.078;2023-05-16T14:28:40;13.10;99.90
10083;DHT22;5080;48.528;8.078;2023-05-16T14:31:07;13.00;99.90
10083;DHT22;5080;48.528;8.078;2023-05-16T14:33:34;13.00;99.90
10083;DHT22;5080;48.528;8.078;2023-05-16T14:36:01;13.00;99.90
10083;DHT22;5080;48.528;8.078;2023-05-16T14:38:28;13.00;99.90
10083;DHT22;5080;48.528;8.078;2023-05-16T14:40:56;13.00;99.90
10083;DHT22;5080;48.528;8.078;2023-05-16T14:43:23;13.00;99.90
10083;DHT22;5080;48.528;8.078;2023-05-16T14:45:49;13.00;99.90
10083;DHT22;5080;48.528;8.078;2023-05-16T14:48:16;13.00;99.90
10083;DHT22;5080;48.528;8.078;2023-05-16T14:50:43;13.00;99.90
10083;DHT22;5080;48.528;8.078;2023-05-16T14:53:10;13.00;99.90
10083;DHT22;5080;48.528;8.078;2023-05-16T14:55:37;13.10;99.90
10083;DHT22;5080;48.528;8.078;2023-05-16T14:58:05;13.10;99.90
10083;DHT22;5080;48.528;8.078;2023-05-16T15:00:33;13.20;99.90
10083;DHT22;5080;48.528;8.078;2023-05-16T15:02:59;13.30;99.90
10083;DHT22;5080;48.528;8.078;2023-05-16T15:05:26;13.30;99.90
10083;DHT22;5080;48.528;8.078;2023-05-16T15:07:53;13.40;99.90
10083;DHT22;5080;48.528;8.078;2023-05-16T15:10:20;13.30;99.90
10083;DHT22;5080;48.528;8.078;2023-05-16T15:12:47;13.20;99.90
10083;DHT22;5080;48.528;8.078;2023-05-16T15:15:15;13.20;99.90
10083;DHT22;5080;48.528;8.078;2023-05-16T15:17:42;13.40;99.90
10083;DHT22;5080;48.528;8.078;2023-05-16T15:20:10;13.50;99.90
10083;DHT22;5080;48.528;8.078;2023-05-16T15:22:38;13.60;99.90
10083;DHT22;5080;48.528;8.078;2023-05-16T15:25:06;13.50;99.90
10083;DHT22;5080;48.528;8.078;2023-05-16T15:27:33;13.50;99.90
10083;DHT22;5080;48.528;8.078;2023-05-16T15:30:00;13.60;99.90
10083;DHT22;5080;48.528;8.078;2023-05-16T15:32:28;13.70;99.90
10083;DHT22;5080;48.528;8.078;2023-05-16T15:34:56;13.80;99.90
10083;DHT22;5080;48.528;8.078;2023-05-16T15:37:23;13.80;99.90
10083;DHT22;5080;48.528;8.078;2023-05-16T15:39:50;13.80;99.90
10083;DHT22;5080;48.528;8.078;2023-05-16T15:42:17;13.80;99.90
10083;DHT22;5080;48.528;8.078;2023-05-16T15:44:45;13.90;99.90
10083;DHT22;5080;48.528;8.078;2023-05-16T15:47:12;13.90;99.90
10083;DHT22;5080;48.528;8.078;2023-05-16T15:49:40;13.90;99.90
10083;DHT22;5080;48.528;8.078;2023-05-16T15:52:07;13.90;99.90